Beaverlodge, Canada
Current Conditions -  °F | °C
As of 7:00 AM on Monday 24 Nov 2014 (Local Time) from CYQU Reporting Station
Scattered Clouds Scattered Clouds  
Wind Chill:   Ceiling: Unl
Heat Index:   Visibility: 25mi
Dew Point:   Wind: 3mph
Humidity: 92%   Direction: 20°NNE
Pressure: 29.94"   Gusts: NA
Location:  55.2°N, 119.45°W
Report Text: CYQU 241400Z 02003KT 25SM SCT210 M15/M16 A2994 RMK CI4 SLP191
Loading
Personal Weather Stations






























Interactive Weather Map New forecast layout! Learn more

10-Day Weather Forecast

Advertisements
Track Severe Weather on mobile